Terminal Aerodrome Forecast
Issued by NWS

Home | Current Version | Previous Version | Text Only | Print | Product List | Glossary On
Versions: 1 2 3 4 5 6 7 8 9 10 11 12 13
000
FTUS44 KLIX 230500
TAFGPT
TAF
KGPT 230525Z 2306/2406 10009KT P6SM OVC009
     FM231000 12013KT 3SM -SHRA OVC009
      TEMPO 2311/2315 VRB35KT 1SM +TSRA BKN008 OVC014CB
     FM231500 17015KT 3SM -SHRA OVC008
     FM231800 20016KT P6SM BKN015
     FM232200 21012KT P6SM SCT022=

USA.gov is the U.S. government's official web portal to all federal, state and local government web resources and services.